createdAt,value
2022-11-29T00:00:11.830Z,93468.03
2022-11-29T00:01:30.654Z,93469.50
2022-11-29T00:02:32.241Z,93471.97
2022-11-29T00:03:34.577Z,93472.63
2022-11-29T00:04:37.168Z,93464.78
2022-11-29T00:05:38.721Z,93468.88
2022-11-29T00:06:40.417Z,93470.84
2022-11-29T00:07:43.383Z,93470.34
2022-11-29T00:08:50.901Z,93461.34
2022-11-29T00:09:52.475Z,93464.44
2022-11-29T00:10:54.019Z,93472.44
2022-11-29T00:11:55.540Z,93469.50
2022-11-29T00:12:57.080Z,93469.84
2022-11-29T00:13:58.612Z,93465.44
2022-11-29T00:15:00.136Z,93467.88
2022-11-29T00:16:03.451Z,93471.47
2022-11-29T00:17:05.077Z,93467.75
2022-11-29T00:18:07.496Z,93463.31
2022-11-29T00:19:09.963Z,93472.47
2022-11-29T00:20:12.548Z,93467.88
2022-11-29T00:21:14.059Z,93475.06
2022-11-29T00:22:15.717Z,93467.91
2022-11-29T00:23:18.560Z,93465.78
2022-11-29T00:24:20.309Z,93468.72
2022-11-29T00:25:21.810Z,93468.72
2022-11-29T00:26:23.378Z,93465.28
2022-11-29T00:27:24.919Z,93471.97
2022-11-29T00:28:26.451Z,93466.25
2022-11-29T00:29:28.944Z,93465.13
2022-11-29T00:30:30.477Z,93465.28
2022-11-29T00:31:33.421Z,93469.38
2022-11-29T00:32:35.935Z,93470.50
2022-11-29T00:33:37.438Z,93470.50
2022-11-29T00:34:38.969Z,93463.84
2022-11-29T00:35:40.469Z,93468.06
2022-11-29T00:36:42.034Z,93466.91
2022-11-29T00:37:43.589Z,93473.94
2022-11-29T00:38:46.533Z,93473.63
2022-11-29T00:39:48.067Z,93461.34
2022-11-29T00:40:51.466Z,93469.38
2022-11-29T00:41:52.970Z,93468.06
2022-11-29T00:42:54.487Z,93473.63
2022-11-29T00:43:56.046Z,93464.97
2022-11-29T00:44:57.611Z,93465.13
2022-11-29T00:45:59.419Z,93464.16
2022-11-29T00:47:00.926Z,93463.81
2022-11-29T00:48:02.433Z,93465.94
2022-11-29T00:49:04.289Z,93467.41
2022-11-29T00:50:07.207Z,93462.69
2022-11-29T00:51:09.031Z,93471.84
2022-11-29T00:52:10.566Z,93468.72
2022-11-29T00:53:12.107Z,93471.19
2022-11-29T00:54:15.733Z,93467.56
2022-11-29T00:55:17.435Z,93465.13
2022-11-29T00:56:19.025Z,93469.84
2022-11-29T00:57:20.687Z,93465.94
2022-11-29T00:58:22.560Z,93460.53
2022-11-29T00:59:24.079Z,93465.28
2022-11-29T01:00:25.631Z,93463.97
2022-11-29T01:01:27.195Z,93459.56
2022-11-29T01:02:28.758Z,93459.72
2022-11-29T01:03:30.354Z,93470.00
2022-11-29T01:04:31.884Z,93458.75
2022-11-29T01:05:33.606Z,93461.84
2022-11-29T01:06:35.257Z,93463.31
2022-11-29T01:07:36.824Z,93456.47
2022-11-29T01:08:39.164Z,93464.13
2022-11-29T01:09:42.202Z,93463.31
2022-11-29T01:10:43.823Z,93466.59
2022-11-29T01:11:45.315Z,93466.91
2022-11-29T01:12:46.853Z,93459.25
2022-11-29T01:13:49.310Z,93458.91
2022-11-29T01:14:50.818Z,93465.44
2022-11-29T01:15:55.647Z,93457.28
2022-11-29T01:16:57.244Z,93460.69
2022-11-29T01:17:59.353Z,93461.19
2022-11-29T01:19:00.915Z,93465.28
2022-11-29T01:20:02.839Z,93462.31
2022-11-29T01:21:06.376Z,93466.25
2022-11-29T01:22:07.895Z,93464.94
2022-11-29T01:23:09.397Z,93458.09
2022-11-29T01:24:10.886Z,93460.53
2022-11-29T01:25:14.059Z,93461.53
2022-11-29T01:26:18.386Z,93468.06
2022-11-29T01:27:19.878Z,93466.56
2022-11-29T01:28:22.186Z,93461.53
2022-11-29T01:29:24.041Z,93459.22
2022-11-29T01:30:28.369Z,93465.28
2022-11-29T01:31:32.426Z,93458.25
2022-11-29T01:32:34.041Z,93465.13
2022-11-29T01:33:36.306Z,93463.47
2022-11-29T01:34:38.235Z,93461.19
2022-11-29T01:35:39.774Z,93466.09
2022-11-29T01:36:41.287Z,93460.38
2022-11-29T01:37:42.841Z,93463.63
2022-11-29T01:38:44.363Z,93466.72
2022-11-29T01:39:45.846Z,93460.84
2022-11-29T01:40:58.619Z,93464.09
2022-11-29T01:42:00.148Z,93460.50
2022-11-29T01:43:01.637Z,93464.75
2022-11-29T01:44:06.124Z,93468.03
2022-11-29T01:45:20.335Z,93462.63
2022-11-29T01:46:22.192Z,93463.63
2022-11-29T01:47:23.791Z,93467.22
2022-11-29T01:48:37.206Z,93467.38
2022-11-29T01:49:42.663Z,93461.81
2022-11-29T01:50:44.426Z,93462.81
2022-11-29T01:51:50.250Z,93461.34
2022-11-29T01:52:52.248Z,93461.00
2022-11-29T01:53:54.931Z,93461.66
2022-11-29T01:55:00.274Z,93453.97
2022-11-29T01:56:04.940Z,93453.31
2022-11-29T01:57:08.120Z,93459.53
2022-11-29T01:58:09.879Z,93456.75
2022-11-29T01:59:13.819Z,93461.63
2022-11-29T02:00:17.912Z,93454.13
2022-11-29T02:01:19.772Z,93457.72
2022-11-29T02:02:27.170Z,93462.78
2022-11-29T02:03:28.714Z,93461.97
2022-11-29T02:04:31.474Z,93464.25
2022-11-29T02:05:33.364Z,93466.06
2022-11-29T02:06:35.776Z,93458.88
2022-11-29T02:07:37.978Z,93457.06
2022-11-29T02:08:42.057Z,93464.28
2022-11-29T02:09:43.619Z,93467.38
2022-11-29T02:10:56.178Z,93457.56
2022-11-29T02:12:15.287Z,93453.66
2022-11-29T02:13:26.990Z,93462.16
2022-11-29T02:14:46.448Z,93457.72
2022-11-29T02:15:54.249Z,93458.53
2022-11-29T02:17:03.687Z,93457.72
2022-11-29T02:18:10.301Z,93460.34
2022-11-29T02:19:33.876Z,93462.16
2022-11-29T02:21:08.759Z,93462.00
2022-11-29T02:22:20.493Z,93464.09
2022-11-29T02:23:59.256Z,93468.69
2022-11-29T02:25:15.154Z,93458.41
2022-11-29T02:26:33.489Z,93461.16
2022-11-29T02:28:10.114Z,93459.38
2022-11-29T02:29:47.429Z,93449.88
2022-11-29T02:31:40.378Z,93454.63
2022-11-29T02:33:29.488Z,93462.00
2022-11-29T02:35:04.202Z,93457.91
2022-11-29T02:36:29.717Z,93462.31
2022-11-29T02:37:58.991Z,93456.94
2022-11-29T02:39:23.196Z,93458.41
2022-11-29T02:40:58.525Z,93457.44
2022-11-29T02:42:31.441Z,93459.22
2022-11-29T02:43:50.251Z,93460.84
2022-11-29T02:45:14.393Z,93459.22
2022-11-29T02:46:39.601Z,93459.56
2022-11-29T02:47:52.207Z,93465.13
2022-11-29T02:49:12.246Z,93469.66
2022-11-29T02:50:24.134Z,93464.47
2022-11-29T02:51:34.650Z,93468.22
2022-11-29T02:52:42.970Z,93464.44
2022-11-29T02:53:51.068Z,93465.13
2022-11-29T02:54:56.596Z,93463.94
2022-11-29T02:56:11.006Z,93464.44
2022-11-29T02:57:22.879Z,93461.81
2022-11-29T02:58:33.370Z,93465.72
2022-11-29T02:59:45.497Z,93460.16
2022-11-29T03:00:56.990Z,93458.34
2022-11-29T03:02:02.179Z,93463.44
2022-11-29T03:03:10.150Z,93466.38
2022-11-29T03:04:21.891Z,93466.06
2022-11-29T03:05:34.933Z,93467.53
2022-11-29T03:06:44.230Z,93466.72
2022-11-29T03:07:53.599Z,93467.06
2022-11-29T03:09:05.469Z,93480.13
2022-11-29T03:10:18.802Z,93473.94
2022-11-29T03:11:28.881Z,93464.94
2022-11-29T03:12:39.557Z,93465.75
2022-11-29T03:13:50.491Z,93468.03
2022-11-29T03:15:02.483Z,93476.03
2022-11-29T03:16:12.283Z,93474.75
2022-11-29T03:17:20.033Z,93470.31
2022-11-29T03:18:34.592Z,93468.03
2022-11-29T03:19:55.720Z,93471.94
2022-11-29T03:21:09.906Z,93480.44
2022-11-29T03:22:19.665Z,93482.75
2022-11-29T03:23:25.491Z,93480.47
2022-11-29T03:24:34.461Z,93489.59
2022-11-29T03:25:42.250Z,93483.25
2022-11-29T03:26:48.234Z,93488.66
2022-11-29T03:27:58.881Z,93482.91
2022-11-29T03:29:07.268Z,93484.22
2022-11-29T03:30:11.830Z,93484.72
2022-11-29T03:31:20.653Z,93490.56
2022-11-29T03:32:27.779Z,93490.56
2022-11-29T03:33:37.165Z,93490.09
2022-11-29T03:35:02.795Z,93492.69
2022-11-29T03:36:12.794Z,93488.78
2022-11-29T03:37:18.228Z,93490.41
2022-11-29T03:38:28.200Z,93493.69
2022-11-29T03:39:38.842Z,93495.31
2022-11-29T03:40:47.992Z,93491.06
2022-11-29T03:41:55.569Z,93488.47
2022-11-29T03:43:05.632Z,93491.41
2022-11-29T03:44:13.087Z,93486.84
2022-11-29T03:45:22.680Z,93492.88
2022-11-29T03:46:31.876Z,93491.56
2022-11-29T03:47:40.905Z,93487.50
2022-11-29T03:48:47.075Z,93497.28
2022-11-29T03:49:53.861Z,93501.88
2022-11-29T03:51:01.480Z,93495.31
2022-11-29T03:52:12.079Z,93490.28
2022-11-29T03:53:23.585Z,93491.91
2022-11-29T03:54:29.528Z,93496.78
2022-11-29T03:55:46.303Z,93496.13
2022-11-29T03:56:48.628Z,93494.31
2022-11-29T03:58:04.471Z,93486.16
2022-11-29T03:59:19.100Z,93493.84
2022-11-29T04:00:21.295Z,93492.06
2022-11-29T04:01:53.556Z,93491.25
2022-11-29T04:03:32.094Z,93492.34
2022-11-29T04:05:21.320Z,93488.44
2022-11-29T04:06:45.039Z,93489.44
2022-11-29T04:08:11.367Z,93491.53
2022-11-29T04:09:30.247Z,93483.22
2022-11-29T04:11:14.216Z,93493.03
2022-11-29T04:12:44.046Z,93491.56
2022-11-29T04:14:16.699Z,93487.47
2022-11-29T04:15:53.044Z,93486.00
2022-11-29T04:17:31.228Z,93481.63
2022-11-29T04:18:54.868Z,93493.53
2022-11-29T04:20:38.810Z,93488.13
2022-11-29T04:21:59.664Z,93485.03
2022-11-29T04:23:37.314Z,93496.78
2022-11-29T04:27:13.042Z,93492.88
2022-11-29T04:28:43.261Z,93505.13
2022-11-29T04:30:04.857Z,93499.25
2022-11-29T04:31:17.820Z,93507.72
2022-11-29T04:32:34.354Z,93504.97
2022-11-29T04:34:12.023Z,93507.91
2022-11-29T04:35:38.874Z,93506.25
2022-11-29T04:37:13.605Z,93505.94
2022-11-29T04:38:36.268Z,93503.81
2022-11-29T04:39:57.183Z,93508.53
2022-11-29T04:41:49.139Z,93508.88
2022-11-29T04:43:17.177Z,93512.16
2022-11-29T04:44:52.283Z,93511.97
2022-11-29T04:46:13.693Z,93516.53
2022-11-29T04:47:41.123Z,93517.69
2022-11-29T04:49:24.456Z,93516.72
2022-11-29T04:50:38.942Z,93521.09
2022-11-29T04:52:02.426Z,93510.50
2022-11-29T04:53:29.893Z,93511.16
2022-11-29T04:54:37.453Z,93519.63
2022-11-29T04:55:46.737Z,93516.72
2022-11-29T04:56:52.655Z,93517.03
2022-11-29T04:58:04.267Z,93516.69
2022-11-29T04:59:15.655Z,93520.31
2022-11-29T05:00:21.223Z,93520.31
2022-11-29T05:01:27.778Z,93521.28
2022-11-29T05:02:34.002Z,93522.75
2022-11-29T05:03:41.313Z,93520.78
2022-11-29T05:04:50.838Z,93520.44
2022-11-29T05:05:59.357Z,93514.59
2022-11-29T05:07:06.197Z,93515.88
2022-11-29T05:08:22.447Z,93516.69
2022-11-29T05:09:32.750Z,93517.03
2022-11-29T05:10:43.740Z,93519.16
2022-11-29T05:11:58.545Z,93524.53
2022-11-29T05:13:09.736Z,93520.13
2022-11-29T05:14:24.305Z,93517.34
2022-11-29T05:15:40.356Z,93513.94
2022-11-29T05:16:48.808Z,93521.13
2022-11-29T05:17:55.834Z,93522.09
2022-11-29T05:19:29.127Z,93523.41
2022-11-29T05:20:43.053Z,93523.72
2022-11-29T05:21:58.918Z,93524.38
2022-11-29T05:23:16.303Z,93524.06
2022-11-29T05:24:30.418Z,93524.88
2022-11-29T05:25:42.288Z,93528.44
2022-11-29T05:26:52.639Z,93529.63
2022-11-29T05:28:04.511Z,93527.47
2022-11-29T05:29:16.400Z,93527.63
2022-11-29T05:30:20.509Z,93521.94
2022-11-29T05:31:29.564Z,93525.84
2022-11-29T05:32:35.494Z,93520.13
2022-11-29T05:34:01.812Z,93524.69
2022-11-29T05:35:41.001Z,93526.50
2022-11-29T05:36:50.147Z,93526.81
2022-11-29T05:37:54.315Z,93533.22
2022-11-29T05:39:14.199Z,93530.41
2022-11-29T05:40:43.453Z,93531.25
2022-11-29T05:42:05.297Z,93525.19
2022-11-29T05:43:29.297Z,93527.81
2022-11-29T05:44:38.868Z,93533.19
2022-11-29T05:45:47.871Z,93530.09
2022-11-29T05:46:55.128Z,93532.69
2022-11-29T05:48:03.034Z,93527.78
2022-11-29T05:49:18.517Z,93536.94
2022-11-29T05:50:26.436Z,93532.06
2022-11-29T05:51:40.082Z,93535.63
2022-11-29T05:52:49.443Z,93538.91
2022-11-29T05:54:00.755Z,93536.97
2022-11-29T05:55:17.628Z,93536.63
2022-11-29T05:56:33.057Z,93538.91
2022-11-29T05:57:45.427Z,93533.53
2022-11-29T05:58:51.198Z,93537.91
2022-11-29T05:59:57.370Z,93541.53
2022-11-29T06:01:07.094Z,93532.53
2022-11-29T06:02:22.118Z,93536.97
2022-11-29T06:03:33.696Z,93547.09
2022-11-29T06:04:48.546Z,93546.25
2022-11-29T06:05:54.513Z,93546.41
2022-11-29T06:07:06.695Z,93547.25
2022-11-29T06:08:16.995Z,93546.94
2022-11-29T06:09:26.183Z,93547.56
2022-11-29T06:10:31.697Z,93547.09
2022-11-29T06:11:45.191Z,93546.41
2022-11-29T06:13:00.691Z,93550.66
2022-11-29T06:14:07.635Z,93553.59
2022-11-29T06:15:33.942Z,93551.66
2022-11-29T06:16:52.053Z,93549.69
2022-11-29T06:18:03.106Z,93550.19
2022-11-29T06:19:43.453Z,93555.91
2022-11-29T06:21:10.188Z,93555.09
2022-11-29T06:22:36.484Z,93556.38
2022-11-29T06:24:09.255Z,93560.47
2022-11-29T06:25:23.481Z,93560.78
2022-11-29T06:26:40.207Z,93562.41
2022-11-29T06:28:11.187Z,93555.56
2022-11-29T06:29:27.656Z,93564.06
2022-11-29T06:30:50.470Z,93563.09
2022-11-29T06:31:59.891Z,93568.00
2022-11-29T06:33:08.903Z,93569.31
2022-11-29T06:34:18.308Z,93572.06
2022-11-29T06:35:34.036Z,93572.09
2022-11-29T06:36:42.049Z,93568.00
2022-11-29T06:37:48.177Z,93571.63
2022-11-29T06:38:49.985Z,93571.44
2022-11-29T06:39:52.151Z,93576.34
2022-11-29T06:41:01.582Z,93573.25
2022-11-29T06:42:03.998Z,93572.09
2022-11-29T06:43:05.830Z,93572.75
2022-11-29T06:44:08.254Z,93580.94
2022-11-29T06:45:13.262Z,93588.28
2022-11-29T06:46:27.862Z,93581.91
2022-11-29T06:47:38.484Z,93577.66
2022-11-29T06:48:45.370Z,93583.19
2022-11-29T06:49:49.336Z,93582.22
2022-11-29T06:50:58.162Z,93577.31
2022-11-29T06:52:14.149Z,93581.09
2022-11-29T06:53:22.231Z,93583.22
2022-11-29T06:54:33.817Z,93586.31
2022-11-29T06:55:44.699Z,93580.75
2022-11-29T06:56:53.377Z,93585.31
2022-11-29T06:58:04.470Z,93581.56
2022-11-29T06:59:14.005Z,93593.50
2022-11-29T07:00:19.314Z,93588.41
2022-11-29T07:01:33.829Z,93592.22
2022-11-29T07:03:08.886Z,93596.44
2022-11-29T07:04:27.331Z,93599.38
2022-11-29T07:05:30.837Z,93593.69
2022-11-29T07:06:34.142Z,93596.44
2022-11-29T07:07:36.435Z,93597.25
2022-11-29T07:08:40.218Z,93594.97
2022-11-29T07:09:42.982Z,93602.34
2022-11-29T07:10:46.546Z,93599.22
2022-11-29T07:11:48.670Z,93607.56
2022-11-29T07:12:51.398Z,93605.44
2022-11-29T07:13:53.563Z,93602.84
2022-11-29T07:14:55.687Z,93611.97
2022-11-29T07:16:11.224Z,93603.47
2022-11-29T07:17:34.497Z,93605.91
2022-11-29T07:18:44.414Z,93600.53
2022-11-29T07:19:54.774Z,93603.47
2022-11-29T07:21:07.749Z,93605.09
2022-11-29T07:22:26.806Z,93604.13
2022-11-29T07:23:34.826Z,93612.13
2022-11-29T07:24:50.142Z,93608.84
2022-11-29T07:26:00.919Z,93612.94
2022-11-29T07:27:11.256Z,93604.28
2022-11-29T07:28:27.435Z,93608.03
2022-11-29T07:31:14.003Z,93612.81
2022-11-29T07:32:31.819Z,93618.38
2022-11-29T07:33:44.139Z,93619.97
2022-11-29T07:34:57.558Z,93621.78
2022-11-29T07:36:09.485Z,93613.94
2022-11-29T07:37:20.871Z,93615.06
2022-11-29T07:38:29.430Z,93612.16
2022-11-29T07:39:42.469Z,93619.81
2022-11-29T07:40:51.020Z,93615.09
2022-11-29T07:42:01.933Z,93611.63
2022-11-29T07:43:21.799Z,93616.88
2022-11-29T07:44:34.109Z,93615.75
2022-11-29T07:45:36.051Z,93620.47
2022-11-29T07:46:37.552Z,93613.28
2022-11-29T07:47:40.415Z,93618.19
2022-11-29T07:48:41.902Z,93619.97
2022-11-29T07:49:43.420Z,93623.09
2022-11-29T07:50:45.380Z,93621.44
2022-11-29T07:51:47.062Z,93620.81
2022-11-29T07:52:49.074Z,93619.97
2022-11-29T07:53:50.618Z,93621.94
2022-11-29T07:54:52.150Z,93623.41
2022-11-29T07:55:53.782Z,93625.72
2022-11-29T07:56:55.320Z,93619.00
2022-11-29T07:57:59.983Z,93623.25
2022-11-29T07:59:01.569Z,93627.34
2022-11-29T08:00:04.219Z,93627.19
2022-11-29T08:01:06.027Z,93623.09
2022-11-29T08:02:11.703Z,93628.81
2022-11-29T08:03:14.973Z,93628.31
2022-11-29T08:04:16.478Z,93630.94
2022-11-29T08:05:18.504Z,93630.75
2022-11-29T08:06:24.362Z,93629.00
2022-11-29T08:07:26.016Z,93626.19
2022-11-29T08:08:27.731Z,93629.16
2022-11-29T08:09:29.226Z,93632.06
2022-11-29T08:10:31.012Z,93633.06
2022-11-29T08:11:32.573Z,93632.75
2022-11-29T08:12:58.264Z,93633.06
2022-11-29T08:14:01.606Z,93635.34
2022-11-29T08:15:03.806Z,93633.06
2022-11-29T08:16:05.766Z,93630.75
2022-11-29T08:17:07.379Z,93630.94
2022-11-29T08:18:08.898Z,93639.59
2022-11-29T08:19:11.740Z,93633.72
2022-11-29T08:20:14.986Z,93635.00
2022-11-29T08:21:16.563Z,93637.63
2022-11-29T08:22:18.488Z,93636.00
2022-11-29T08:23:20.001Z,93640.91
2022-11-29T08:24:21.789Z,93637.00
2022-11-29T08:25:23.295Z,93638.47
2022-11-29T08:26:29.857Z,93636.66
2022-11-29T08:27:33.730Z,93635.19
2022-11-29T08:28:35.281Z,93639.91
2022-11-29T08:29:36.814Z,93640.75
2022-11-29T08:30:38.371Z,93639.41
2022-11-29T08:31:39.933Z,93637.31
2022-11-29T08:32:41.470Z,93638.25
2022-11-29T08:33:43.959Z,93631.22
2022-11-29T08:34:47.087Z,93638.75
2022-11-29T08:35:48.715Z,93638.25
2022-11-29T08:36:50.663Z,93641.69
2022-11-29T08:37:53.820Z,93639.59
2022-11-29T08:39:02.266Z,93635.97
2022-11-29T08:40:08.916Z,93636.31
2022-11-29T08:41:13.172Z,93636.97
2022-11-29T08:42:14.672Z,93646.47
2022-11-29T08:43:16.167Z,93647.13
2022-11-29T08:44:17.843Z,93638.63
2022-11-29T08:45:19.482Z,93640.72
2022-11-29T08:46:21.310Z,93646.13
2022-11-29T08:47:22.861Z,93648.28
2022-11-29T08:48:24.948Z,93643.19
2022-11-29T08:49:26.491Z,93644.63
2022-11-29T08:50:38.552Z,93646.94
2022-11-29T08:51:40.130Z,93645.66
2022-11-29T08:52:43.681Z,93644.81
2022-11-29T08:53:45.182Z,93641.53
2022-11-29T08:54:47.029Z,93641.22
2022-11-29T08:55:48.724Z,93648.28
2022-11-29T08:57:31.080Z,93651.38
2022-11-29T08:58:14.100Z,93644.81
2022-11-29T08:59:15.628Z,93647.44
2022-11-29T09:00:18.295Z,93644.63
2022-11-29T09:01:31.869Z,93645.47
2022-11-29T09:02:33.470Z,93651.69
2022-11-29T09:03:35.017Z,93648.25
2022-11-29T09:04:36.508Z,93652.34
2022-11-29T09:05:40.449Z,93650.72
2022-11-29T09:06:42.444Z,93654.97
2022-11-29T09:07:44.077Z,93654.97
2022-11-29T09:08:45.661Z,93652.50
2022-11-29T09:09:47.169Z,93657.75
2022-11-29T09:10:49.355Z,93658.06
2022-11-29T09:11:50.928Z,93664.13
2022-11-29T09:12:52.436Z,93660.53
2022-11-29T09:13:56.493Z,93660.84
2022-11-29T09:14:58.792Z,93668.53
2022-11-29T09:16:05.178Z,93659.88
2022-11-29T09:17:06.758Z,93667.72
2022-11-29T09:18:08.282Z,93663.97
2022-11-29T09:19:10.514Z,93661.84
2022-11-29T09:20:12.764Z,93669.53
2022-11-29T09:21:16.333Z,93665.09
2022-11-29T09:22:17.818Z,93670.16
2022-11-29T09:23:19.398Z,93670.16
2022-11-29T09:24:20.910Z,93666.91
2022-11-29T09:25:22.463Z,93675.25
2022-11-29T09:26:25.123Z,93673.28
2022-11-29T09:27:26.644Z,93678.53
2022-11-29T09:28:31.363Z,93672.63
2022-11-29T09:29:33.170Z,93676.38
2022-11-29T09:30:34.707Z,93674.25
2022-11-29T09:31:36.283Z,93674.91
2022-11-29T09:32:37.883Z,93671.00
2022-11-29T09:33:39.782Z,93673.59
2022-11-29T09:34:41.319Z,93671.63
2022-11-29T09:35:42.907Z,93672.13
2022-11-29T09:36:45.852Z,93671.59
2022-11-29T09:37:47.355Z,93668.66
2022-11-29T09:38:49.974Z,93672.94
2022-11-29T09:39:51.583Z,93673.75
2022-11-29T09:40:54.641Z,93665.88
2022-11-29T09:42:37.782Z,93669.16
2022-11-29T09:43:50.345Z,93672.59
2022-11-29T09:45:01.692Z,93672.25
2022-11-29T09:46:12.248Z,93672.25
2022-11-29T09:47:27.970Z,93670.47
2022-11-29T09:48:58.912Z,93669.97
2022-11-29T09:50:13.322Z,93663.59
2022-11-29T09:51:24.569Z,93673.88
2022-11-29T09:52:36.022Z,93666.22
2022-11-29T09:53:48.546Z,93678.31
2022-11-29T09:55:02.769Z,93673.59
2022-11-29T09:56:11.926Z,93669.31
2022-11-29T09:57:13.922Z,93668.34
2022-11-29T09:58:18.704Z,93671.13
2022-11-29T09:59:23.856Z,93668.84
2022-11-29T10:00:25.434Z,93677.50
2022-11-29T10:01:31.145Z,93672.94
2022-11-29T10:02:38.498Z,93675.38
2022-11-29T10:03:43.600Z,93669.47
2022-11-29T10:04:50.654Z,93676.84
2022-11-29T10:05:56.952Z,93680.97
2022-11-29T10:07:06.607Z,93689.28
2022-11-29T10:08:18.454Z,93676.69
2022-11-29T10:09:24.245Z,93673.75
2022-11-29T10:10:32.617Z,93677.16
2022-11-29T10:11:39.725Z,93681.75
2022-11-29T10:12:46.424Z,93685.84
2022-11-29T10:13:51.943Z,93676.50
2022-11-29T10:15:00.133Z,93674.22
2022-11-29T10:16:10.720Z,93678.78
2022-11-29T10:17:23.045Z,93679.94
2022-11-29T10:18:32.293Z,93677.63
2022-11-29T10:19:39.028Z,93677.31
2022-11-29T10:20:48.781Z,93673.84
2022-11-29T10:22:00.606Z,93676.16
2022-11-29T10:23:06.625Z,93679.59
2022-11-29T10:24:15.002Z,93673.19
2022-11-29T10:25:22.992Z,93679.22
2022-11-29T10:26:24.539Z,93677.44
2022-11-29T10:27:28.388Z,93675.81
2022-11-29T10:28:32.071Z,93670.22
2022-11-29T10:29:42.729Z,93676.75
2022-11-29T10:30:44.709Z,93676.31
2022-11-29T10:31:47.588Z,93677.75
2022-11-29T10:32:55.705Z,93681.91
2022-11-29T10:34:01.022Z,93683.88
2022-11-29T10:35:02.596Z,93676.13
2022-11-29T10:36:14.971Z,93671.22
2022-11-29T10:37:18.845Z,93679.91
2022-11-29T10:38:30.811Z,93670.03
2022-11-29T10:39:39.782Z,93676.09
2022-11-29T10:40:46.828Z,93667.56
2022-11-29T10:41:51.666Z,93679.34
2022-11-29T10:42:53.228Z,93674.00
2022-11-29T10:43:56.579Z,93674.38
2022-11-29T10:44:59.838Z,93671.22
2022-11-29T10:46:01.479Z,93674.38
2022-11-29T10:47:10.478Z,93670.84
2022-11-29T10:48:15.170Z,93668.56
2022-11-29T10:49:35.856Z,93670.41
2022-11-29T10:50:41.008Z,93665.19
2022-11-29T10:51:43.195Z,93674.19
2022-11-29T10:52:44.738Z,93669.44
2022-11-29T10:53:46.381Z,93673.03
2022-11-29T10:54:51.840Z,93674.94
2022-11-29T10:55:58.798Z,93672.72
2022-11-29T10:57:01.856Z,93672.91
2022-11-29T10:58:12.807Z,93679.59
2022-11-29T10:59:21.052Z,93673.84
2022-11-29T11:00:22.599Z,93678.75
2022-11-29T11:01:25.344Z,93675.19
2022-11-29T11:02:27.094Z,93672.59
2022-11-29T11:03:33.468Z,93671.28
2022-11-29T11:04:42.953Z,93673.75
2022-11-29T11:05:57.654Z,93672.25
2022-11-29T11:07:01.330Z,93674.56
2022-11-29T11:08:03.054Z,93669.47
2022-11-29T11:09:14.809Z,93682.06
2022-11-29T11:10:27.578Z,93678.13
2022-11-29T11:11:31.030Z,93680.09
2022-11-29T11:12:34.853Z,93671.28
2022-11-29T11:13:37.252Z,93675.19
2022-11-29T11:14:38.826Z,93673.66
2022-11-29T11:15:40.420Z,93675.13
2022-11-29T11:16:42.010Z,93665.00
2022-11-29T11:17:56.466Z,93662.03
2022-11-29T11:19:18.389Z,93668.41
2022-11-29T11:20:21.589Z,93672.09
2022-11-29T11:21:25.383Z,93676.50
2022-11-29T11:22:29.063Z,93675.41
2022-11-29T11:23:32.374Z,93672.41
2022-11-29T11:24:44.836Z,93676.06
2022-11-29T11:26:00.337Z,93677.03
2022-11-29T11:27:02.526Z,93678.50
2022-11-29T11:28:19.589Z,93675.06
2022-11-29T11:29:25.516Z,93679.63
2022-11-29T11:30:29.203Z,93681.78
2022-11-29T11:31:33.211Z,93681.28
2022-11-29T11:32:34.740Z,93678.16
2022-11-29T11:33:38.043Z,93682.59
2022-11-29T11:34:51.347Z,93676.88
2022-11-29T11:36:02.239Z,93675.25
2022-11-29T11:37:25.948Z,93676.06
2022-11-29T11:38:27.518Z,93681.63
2022-11-29T11:39:29.225Z,93688.97
2022-11-29T11:40:31.162Z,93684.88
2022-11-29T11:41:37.843Z,93683.06
2022-11-29T11:42:40.067Z,93684.06
2022-11-29T11:43:41.632Z,93694.38
2022-11-29T11:44:47.833Z,93680.44
2022-11-29T11:45:53.212Z,93688.13
2022-11-29T11:46:55.474Z,93683.72
2022-11-29T11:47:59.609Z,93681.75
2022-11-29T11:49:01.191Z,93683.25
2022-11-29T11:50:27.504Z,93681.78
2022-11-29T11:51:29.079Z,93684.41
2022-11-29T11:52:39.811Z,93687.66
2022-11-29T11:53:42.912Z,93687.19
2022-11-29T11:54:46.299Z,93686.50
2022-11-29T11:55:56.994Z,93688.81
2022-11-29T11:57:00.156Z,93686.69
2022-11-29T11:58:10.200Z,93688.97
2022-11-29T11:59:18.395Z,93692.09
2022-11-29T12:02:01.289Z,93689.47
2022-11-29T12:03:03.743Z,93693.25
2022-11-29T12:04:11.409Z,93690.78
2022-11-29T12:05:19.172Z,93693.56
2022-11-29T12:06:39.253Z,93689.94
2022-11-29T12:08:07.409Z,93693.56
2022-11-29T12:09:17.227Z,93698.78
2022-11-29T12:10:22.959Z,93694.88
2022-11-29T12:11:26.388Z,93707.63
2022-11-29T12:12:32.490Z,93707.94
2022-11-29T12:13:38.722Z,93704.34
2022-11-29T12:14:55.464Z,93701.72
2022-11-29T12:16:01.863Z,93702.03
2022-11-29T12:17:15.436Z,93701.72
2022-11-29T12:18:28.246Z,93708.63
2022-11-29T12:19:35.818Z,93707.97
2022-11-29T12:20:42.807Z,93702.38
2022-11-29T12:21:50.259Z,93700.75
2022-11-29T12:23:08.973Z,93699.09
2022-11-29T12:24:23.812Z,93711.53
2022-11-29T12:25:30.948Z,93698.94
2022-11-29T12:26:57.618Z,93698.78
2022-11-29T12:28:01.386Z,93707.28
2022-11-29T12:29:02.947Z,93713.50
2022-11-29T12:30:12.236Z,93712.34
2022-11-29T12:31:34.204Z,93712.53
2022-11-29T12:32:57.249Z,93709.59
2022-11-29T12:34:13.383Z,93707.78
2022-11-29T12:35:38.060Z,93714.97
2022-11-29T12:36:49.048Z,93702.22
2022-11-29T12:37:56.628Z,93705.63
2022-11-29T12:39:08.377Z,93712.50
2022-11-29T12:40:18.388Z,93709.72
2022-11-29T12:41:31.866Z,93712.53
2022-11-29T12:42:46.263Z,93711.06
2022-11-29T12:43:57.706Z,93706.47
2022-11-29T12:45:17.474Z,93709.91
2022-11-29T12:46:24.234Z,93708.44
2022-11-29T12:47:41.756Z,93707.28
2022-11-29T12:48:56.044Z,93713.19
2022-11-29T12:50:07.747Z,93712.53
2022-11-29T12:51:19.744Z,93710.25
2022-11-29T12:52:29.528Z,93712.34
2022-11-29T12:53:45.214Z,93709.56
2022-11-29T12:55:01.830Z,93708.91
2022-11-29T12:56:14.357Z,93717.09
2022-11-29T12:57:23.725Z,93716.63
2022-11-29T12:58:32.900Z,93711.34
2022-11-29T12:59:56.264Z,93712.50
2022-11-29T13:01:08.042Z,93710.38
2022-11-29T13:02:31.465Z,93710.38
2022-11-29T13:03:44.155Z,93710.22
2022-11-29T13:04:59.759Z,93711.84
2022-11-29T13:06:12.252Z,93719.88
2022-11-29T13:07:25.550Z,93710.72
2022-11-29T13:08:48.149Z,93713.16
2022-11-29T13:09:59.692Z,93712.84
2022-11-29T13:11:12.661Z,93714.31
2022-11-29T13:12:20.938Z,93719.38
2022-11-29T13:13:34.992Z,93710.38
2022-11-29T13:14:45.646Z,93716.28
2022-11-29T13:15:58.370Z,93721.34
2022-11-29T13:17:02.119Z,93719.56
2022-11-29T13:18:12.653Z,93723.16
2022-11-29T13:19:22.800Z,93720.53
2022-11-29T13:20:33.736Z,93721.03
2022-11-29T13:21:43.923Z,93726.59
2022-11-29T13:22:52.937Z,93716.47
2022-11-29T13:24:08.720Z,93719.41
2022-11-29T13:25:16.465Z,93717.75
2022-11-29T13:26:19.199Z,93723.97
2022-11-29T13:27:25.060Z,93728.69
2022-11-29T13:28:29.678Z,93727.56
2022-11-29T13:29:31.405Z,93731.97
2022-11-29T13:30:36.011Z,93721.84
2022-11-29T13:31:39.128Z,93732.78
2022-11-29T13:32:48.195Z,93728.53
2022-11-29T13:33:58.821Z,93731.81
2022-11-29T13:35:06.301Z,93728.53
2022-11-29T13:36:14.051Z,93727.72
2022-11-29T13:37:23.823Z,93725.28
2022-11-29T13:38:30.277Z,93728.72